Time;durP1;ratioP1;P1;durP2;ratioP2;P2;SDS_P1;SDS_P2;PMS_P1;PMS_P2;Temp;Humidity;BMP_temperature;BMP_pressure;BME280_temperature;BME280_humidity;BME280_pressure;Samples;Min_cycle;Max_cycle;Signal;HPM_P1;HPM_P2
2021/08/15 00:02:18;;;;;;;8.48;7.47;;;21.70;69.00;;;;;;5121144;28;20187;-80
2021/08/15 00:04:45;;;;;;;8.77;7.50;;;21.70;69.00;;;;;;5104332;28;20646;-81
2021/08/15 00:07:10;;;;;;;8.95;8.05;;;21.80;69.10;;;;;;5123235;28;20159;-79
2021/08/15 00:09:37;;;;;;;8.85;7.95;;;21.80;69.10;;;;;;5122893;28;20188;-80
2021/08/15 00:12:04;;;;;;;9.05;7.97;;;21.70;69.10;;;;;;5097544;28;20246;-80
2021/08/15 00:14:33;;;;;;;8.77;7.88;;;21.70;69.10;;;;;;5043812;28;20182;-80
2021/08/15 00:16:59;;;;;;;8.02;7.22;;;21.70;69.10;;;;;;5043518;28;20155;-80
2021/08/15 00:19:30;;;;;;;8.45;7.53;;;21.70;69.00;;;;;;5044714;28;20157;-79
2021/08/15 00:21:58;;;;;;;8.88;7.97;;;21.70;69.00;;;;;;5078543;28;20205;-79
2021/08/15 00:24:28;;;;;;;8.77;7.88;;;21.80;69.00;;;;;;5095981;28;20201;-79
2021/08/15 00:26:56;;;;;;;8.10;7.22;;;21.80;69.00;;;;;;5095921;28;20239;-80
2021/08/15 00:29:26;;;;;;;8.38;7.45;;;21.70;69.00;;;;;;5095818;28;20242;-80
2021/08/15 00:31:54;;;;;;;8.68;7.53;;;21.70;69.00;;;;;;5094993;28;20238;-79
2021/08/15 00:34:24;;;;;;;8.75;7.80;;;21.70;68.90;;;;;;5026757;28;20189;-80
2021/08/15 00:36:54;;;;;;;8.98;7.82;;;21.70;69.00;;;;;;5009814;28;20562;-80
2021/08/15 00:39:22;;;;;;;8.48;7.57;;;21.70;68.90;;;;;;5026074;28;20187;-79
2021/08/15 00:41:49;;;;;;;8.57;7.70;;;21.70;68.90;;;;;;5026146;28;20185;-80
2021/08/15 00:44:17;;;;;;;8.60;7.53;;;21.70;69.00;;;;;;5077797;28;20198;-80
2021/08/15 00:46:46;;;;;;;8.18;7.38;;;21.70;69.00;;;;;;5027457;28;20159;-79
2021/08/15 00:49:11;;;;;;;8.70;7.70;;;21.70;69.00;;;;;;5043671;28;20151;-79
2021/08/15 00:51:39;;;;;;;9.70;7.90;;;21.70;68.90;;;;;;5026700;28;20163;-80
2021/08/15 00:54:11;;;;;;;9.30;8.07;;;21.70;68.90;;;;;;5095824;28;20208;-79
2021/08/15 00:56:42;;;;;;;8.30;7.40;;;21.70;68.90;;;;;;5112172;28;20217;-79
2021/08/15 00:59:11;;;;;;;8.15;7.32;;;21.70;68.90;;;;;;5094898;28;20174;-80
2021/08/15 01:01:39;;;;;;;8.23;7.43;;;21.70;69.00;;;;;;5026951;28;20174;-80
2021/08/15 01:04:08;;;;;;;8.25;7.40;;;21.70;68.90;;;;;;5009209;28;20232;-79
2021/08/15 01:06:38;;;;;;;9.02;7.43;;;21.70;69.00;;;;;;5009626;28;20196;-80
2021/08/15 01:09:06;;;;;;;8.50;7.60;;;21.70;69.10;;;;;;5025735;28;20222;-80
2021/08/15 01:11:32;;;;;;;8.23;7.43;;;21.70;69.10;;;;;;5044601;28;20633;-80
2021/08/15 01:14:01;;;;;;;8.27;7.47;;;21.70;69.10;;;;;;5046229;28;20150;-79
2021/08/15 01:16:27;;;;;;;9.35;8.32;;;21.70;69.10;;;;;;5029448;28;20242;-80
2021/08/15 01:18:54;;;;;;;8.70;7.80;;;21.70;69.20;;;;;;5045982;28;20169;-79
2021/08/15 01:21:21;;;;;;;8.43;7.63;;;21.70;69.20;;;;;;5029649;28;20170;-80
2021/08/15 01:23:49;;;;;;;8.90;7.80;;;21.70;69.20;;;;;;5046038;28;20154;-79
2021/08/15 01:26:18;;;;;;;8.68;7.80;;;21.70;69.30;;;;;;5028673;28;20162;-80
2021/08/15 01:28:46;;;;;;;8.27;7.47;;;21.70;69.30;;;;;;5045873;28;20669;-79
2021/08/15 01:31:17;;;;;;;8.80;7.53;;;21.60;69.00;;;;;;5045977;28;20192;-80
2021/08/15 01:33:46;;;;;;;9.38;7.78;;;21.70;69.20;;;;;;5079814;28;20645;-79
2021/08/15 01:36:17;;;;;;;8.52;7.63;;;21.70;69.10;;;;;;5080540;28;20284;-79
2021/08/15 01:38:47;;;;;;;8.77;7.88;;;21.70;69.10;;;;;;5079974;28;20185;-79
2021/08/15 01:41:13;;;;;;;8.90;7.47;;;21.70;69.20;;;;;;5080018;28;20201;-80
2021/08/15 01:43:51;;;;;;;8.57;7.50;;;21.70;69.20;;;;;;5028651;28;20181;-80
2021/08/15 01:46:21;;;;;;;8.60;7.68;;;21.70;69.20;;;;;;5045438;28;20150;-80
2021/08/15 01:48:48;;;;;;;8.40;7.57;;;21.70;70.10;;;;;;5012085;28;20214;-79
2021/08/15 01:51:15;;;;;;;9.45;8.10;;;21.60;69.20;;;;;;5029065;28;20568;-79
2021/08/15 01:53:41;;;;;;;8.65;7.68;;;21.60;69.20;;;;;;5045041;28;20153;-79
2021/08/15 01:56:07;;;;;;;9.10;8.18;;;21.70;69.20;;;;;;5028363;28;20155;-80
2021/08/15 01:58:34;;;;;;;8.45;7.57;;;21.60;69.00;;;;;;5046199;28;20157;-80
2021/08/15 02:01:05;;;;;;;8.98;8.07;;;21.60;69.20;;;;;;5062628;28;20187;-79
2021/08/15 02:03:32;;;;;;;8.18;7.40;;;21.70;69.20;;;;;;5063401;28;20163;-80
2021/08/15 02:05:57;;;;;;;8.55;7.43;;;21.60;69.00;;;;;;5045507;28;20253;-79
2021/08/15 02:08:24;;;;;;;8.55;7.60;;;21.70;69.20;;;;;;5062618;28;20501;-80
2021/08/15 02:10:50;;;;;;;9.10;7.90;;;21.70;69.20;;;;;;5028399;28;20197;-80
2021/08/15 02:13:21;;;;;;;8.82;7.68;;;21.60;69.20;;;;;;5044968;28;20218;-79
2021/08/15 02:15:48;;;;;;;8.27;7.40;;;21.60;69.20;;;;;;5044469;28;20165;-80
2021/08/15 02:18:17;;;;;;;9.80;7.97;;;21.70;69.20;;;;;;5045465;28;20157;-80
2021/08/15 02:20:47;;;;;;;8.23;7.30;;;21.70;69.20;;;;;;5079420;28;20185;-80
2021/08/15 02:23:16;;;;;;;8.63;7.70;;;21.70;69.10;;;;;;5027726;28;20672;-80
2021/08/15 02:25:47;;;;;;;9.55;7.65;;;21.60;69.20;;;;;;5113612;28;20641;-80
2021/08/15 02:28:15;;;;;;;8.52;7.40;;;21.60;69.20;;;;;;5113320;28;20212;-79
2021/08/15 02:30:44;;;;;;;8.65;7.32;;;21.60;69.20;;;;;;5113688;28;20575;-79
2021/08/15 02:33:09;;;;;;;8.45;7.50;;;21.60;69.20;;;;;;5113605;28;20182;-79
2021/08/15 02:35:42;;;;;;;8.68;7.32;;;21.60;69.20;;;;;;5113191;28;20186;-79
2021/08/15 02:38:13;;;;;;;8.02;7.18;;;21.50;69.10;;;;;;5095077;28;20174;-80
2021/08/15 02:40:43;;;;;;;8.07;7.07;;;21.60;69.10;;;;;;5096482;28;20185;-80
2021/08/15 02:43:10;;;;;;;7.82;7.03;;;21.60;69.00;;;;;;5097103;28;20246;-79
2021/08/15 02:45:37;;;;;;;8.05;7.25;;;21.60;69.20;;;;;;5096121;28;20182;-80
2021/08/15 02:48:05;;;;;;;8.18;6.97;;;21.60;69.20;;;;;;5095982;28;20211;-79
2021/08/15 02:50:32;;;;;;;7.90;7.10;;;21.60;69.20;;;;;;5096514;28;20244;-79
2021/08/15 02:52:58;;;;;;;8.38;7.55;;;21.60;69.30;;;;;;5062506;28;20207;-79
2021/08/15 02:55:24;;;;;;;8.60;7.70;;;21.60;69.30;;;;;;5045140;28;20170;-80
2021/08/15 02:57:52;;;;;;;8.00;7.20;;;21.60;69.20;;;;;;5062807;28;20158;-79
2021/08/15 03:00:18;;;;;;;10.07;7.82;;;21.60;69.00;;;;;;5043970;28;20165;-80
2021/08/15 03:02:44;;;;;;;7.93;7.13;;;21.60;69.20;;;;;;5044552;28;20158;-80
2021/08/15 03:05:12;;;;;;;8.25;7.35;;;21.60;69.20;;;;;;5044749;28;20161;-80
2021/08/15 03:07:40;;;;;;;8.55;7.43;;;21.60;69.20;;;;;;5113054;28;20193;-79
2021/08/15 03:10:08;;;;;;;8.90;7.82;;;21.50;69.20;;;;;;5011263;28;20296;-79
2021/08/15 03:12:34;;;;;;;8.35;7.55;;;21.60;69.20;;;;;;5112700;28;20246;-79
2021/08/15 03:15:01;;;;;;;8.30;7.50;;;21.50;69.30;;;;;;5062277;28;20184;-80
2021/08/15 03:17:30;;;;;;;8.32;7.45;;;21.60;69.30;;;;;;5045337;28;20158;-79
2021/08/15 03:19:56;;;;;;;8.68;7.72;;;21.50;69.20;;;;;;5062159;28;20187;-80
2021/08/15 03:22:23;;;;;;;8.30;7.35;;;21.50;69.20;;;;;;5061811;28;20158;-79
2021/08/15 03:24:50;;;;;;;8.43;7.38;;;21.50;69.20;;;;;;5112711;28;20192;-80
2021/08/15 03:27:20;;;;;;;7.88;7.00;;;21.50;69.20;;;;;;5113609;28;20712;-79
2021/08/15 03:29:46;;;;;;;8.15;7.35;;;21.60;69.20;;;;;;5096182;28;20223;-79
2021/08/15 03:32:12;;;;;;;8.32;7.40;;;21.50;69.20;;;;;;5061588;28;20159;-80
2021/08/15 03:34:37;;;;;;;8.50;7.53;;;21.50;69.00;;;;;;5061605;28;20169;-80
2021/08/15 03:37:03;;;;;;;8.60;7.80;;;21.60;69.20;;;;;;5027434;28;20166;-80
2021/08/15 03:39:30;;;;;;;8.27;7.15;;;21.60;69.30;;;;;;5043814;28;20166;-79
2021/08/15 03:41:58;;;;;;;7.78;6.97;;;21.60;69.30;;;;;;5061383;28;20147;-80
2021/08/15 03:44:32;;;;;;;7.95;7.13;;;21.50;69.20;;;;;;5061564;28;20158;-79
2021/08/15 03:47:01;;;;;;;7.75;6.95;;;21.60;69.20;;;;;;5095389;28;20201;-79
2021/08/15 03:49:30;;;;;;;8.65;7.60;;;21.50;69.20;;;;;;5095778;28;20182;-79
2021/08/15 03:51:59;;;;;;;8.43;7.30;;;21.50;69.20;;;;;;5078923;28;20178;-79
2021/08/15 03:54:31;;;;;;;7.90;7.10;;;21.50;69.20;;;;;;5096357;28;20532;-80
2021/08/15 03:57:00;;;;;;;8.15;7.20;;;21.50;69.10;;;;;;5113848;28;20668;-79
2021/08/15 03:59:25;;;;;;;8.13;7.28;;;21.50;69.10;;;;;;5116303;28;20174;-80
2021/08/15 04:01:54;;;;;;;7.75;6.85;;;21.50;69.00;;;;;;5064633;28;20519;-79
2021/08/15 04:04:22;;;;;;;8.98;7.70;;;21.50;69.00;;;;;;5099206;28;20182;-80
2021/08/15 04:06:52;;;;;;;7.75;6.93;;;21.60;69.20;;;;;;5116085;28;20183;-80
2021/08/15 04:09:19;;;;;;;9.63;7.70;;;21.60;69.30;;;;;;5030647;28;20186;-80
2021/08/15 04:11:45;;;;;;;8.38;7.57;;;21.50;69.20;;;;;;5063331;28;20227;-80
2021/08/15 04:14:10;;;;;;;8.05;7.25;;;21.50;69.30;;;;;;5064917;28;20182;-80
2021/08/15 04:16:37;;;;;;;8.77;6.90;;;21.50;69.20;;;;;;5064907;28;20154;-79
2021/08/15 04:19:03;;;;;;;8.52;7.15;;;21.50;69.20;;;;;;5063996;28;20157;-80
2021/08/15 04:21:29;;;;;;;8.15;7.35;;;21.50;69.10;;;;;;5046325;28;20150;-81
2021/08/15 04:23:54;;;;;;;8.18;7.28;;;21.50;69.20;;;;;;5046820;28;20207;-80
2021/08/15 04:26:20;;;;;;;8.40;7.50;;;21.50;69.20;;;;;;5046932;28;20162;-79
2021/08/15 04:28:46;;;;;;;8.43;7.50;;;21.50;69.30;;;;;;5064403;28;20162;-79
2021/08/15 04:31:18;;;;;;;8.15;6.90;;;21.50;69.10;;;;;;5030084;28;20217;-80
2021/08/15 04:33:51;;;;;;;8.10;7.20;;;21.60;69.20;;;;;;5114875;28;20193;-79
2021/08/15 04:36:19;;;;;;;8.38;7.47;;;21.60;69.20;;;;;;5011932;28;20192;-79
2021/08/15 04:38:47;;;;;;;8.32;7.30;;;21.50;69.00;;;;;;5099745;28;20174;-81
2021/08/15 04:41:16;;;;;;;8.07;7.28;;;21.50;69.20;;;;;;5115983;28;20225;-79
2021/08/15 04:43:45;;;;;;;8.57;7.20;;;21.50;69.00;;;;;;5098495;28;20178;-79
2021/08/15 04:46:15;;;;;;;10.13;7.65;;;21.50;68.80;;;;;;5098607;28;20663;-79
2021/08/15 04:48:43;;;;;;;7.53;6.72;;;21.50;68.80;;;;;;5098075;28;20189;-80
2021/08/15 04:51:13;;;;;;;8.40;7.50;;;21.50;68.90;;;;;;5098085;28;20221;-80
2021/08/15 04:53:43;;;;;;;7.78;7.03;;;21.50;69.00;;;;;;5097566;28;20182;-79
2021/08/15 04:56:09;;;;;;;8.65;7.57;;;21.50;69.10;;;;;;5097558;28;20268;-80
2021/08/15 04:58:37;;;;;;;8.73;7.22;;;21.50;68.80;;;;;;5063538;28;20159;-80
2021/08/15 05:01:05;;;;;;;8.10;7.30;;;21.50;68.90;;;;;;5080194;28;20285;-80
2021/08/15 05:03:30;;;;;;;7.75;6.95;;;21.50;69.00;;;;;;5114196;28;20195;-80
2021/08/15 05:05:57;;;;;;;8.10;7.28;;;21.50;69.00;;;;;;5045763;28;20238;-80
2021/08/15 05:08:23;;;;;;;7.97;7.18;;;21.50;68.90;;;;;;5062795;28;20613;-80
2021/08/15 05:10:53;;;;;;;7.97;7.03;;;21.50;68.90;;;;;;5045332;28;20311;-81
2021/08/15 05:13:21;;;;;;;8.32;7.03;;;21.50;69.00;;;;;;5096270;28;20233;-80
2021/08/15 05:15:49;;;;;;;7.70;6.90;;;21.50;68.80;;;;;;5079903;28;20174;-80
2021/08/15 05:18:18;;;;;;;7.68;6.88;;;21.50;68.90;;;;;;5113368;28;20188;-80
2021/08/15 05:20:46;;;;;;;8.07;7.00;;;21.50;68.90;;;;;;5095055;28;20246;-80
2021/08/15 05:23:14;;;;;;;7.78;6.97;;;21.50;68.90;;;;;;5112902;28;20187;-81
2021/08/15 05:25:43;;;;;;;8.13;7.32;;;21.50;68.80;;;;;;5095379;28;20187;-80
2021/08/15 05:28:11;;;;;;;7.95;7.13;;;21.40;68.80;;;;;;5112672;28;20204;-80
2021/08/15 05:30:39;;;;;;;8.68;7.47;;;21.50;68.70;;;;;;5113026;28;20217;-81
2021/08/15 05:33:09;;;;;;;8.20;7.40;;;21.50;68.80;;;;;;5026570;28;20218;-80
2021/08/15 05:35:37;;;;;;;7.88;7.07;;;21.50;68.70;;;;;;5095079;28;20186;-81
2021/08/15 05:38:05;;;;;;;8.13;6.85;;;21.50;68.70;;;;;;5094373;28;20578;-81
2021/08/15 05:40:33;;;;;;;8.10;7.22;;;21.50;68.70;;;;;;5025429;28;20190;-81
2021/08/15 05:42:59;;;;;;;8.10;7.30;;;21.60;68.70;;;;;;5111928;28;20189;-80
2021/08/15 05:45:26;;;;;;;7.82;6.88;;;21.60;68.70;;;;;;5060389;28;20158;-81
2021/08/15 05:47:51;;;;;;;7.80;7.00;;;21.60;68.50;;;;;;5026815;28;20158;-80
2021/08/15 05:50:18;;;;;;;8.05;7.25;;;21.60;68.40;;;;;;5061490;28;20200;-80
2021/08/15 05:52:45;;;;;;;8.75;7.13;;;21.60;68.40;;;;;;5061242;28;20155;-80
2021/08/15 05:55:12;;;;;;;9.65;7.50;;;21.60;68.10;;;;;;5044101;28;20169;-80
2021/08/15 05:57:42;;;;;;;8.77;7.38;;;21.60;68.10;;;;;;5044371;28;20161;-80
2021/08/15 06:00:12;;;;;;;7.57;6.68;;;21.60;68.20;;;;;;5095529;28;20302;-80
2021/08/15 06:02:43;;;;;;;9.15;7.18;;;21.60;68.30;;;;;;5095621;28;20234;-80
2021/08/15 06:05:14;;;;;;;8.48;7.25;;;21.60;68.30;;;;;;5026860;28;20265;-80
2021/08/15 06:07:44;;;;;;;7.80;6.82;;;21.60;68.10;;;;;;5112920;28;20261;-80
2021/08/15 06:10:11;;;;;;;8.10;7.05;;;21.60;68.30;;;;;;5044838;28;20189;-80
2021/08/15 06:12:37;;;;;;;8.00;7.20;;;21.50;68.30;;;;;;5027373;28;20232;-80
2021/08/15 06:15:04;;;;;;;8.55;7.10;;;21.50;68.30;;;;;;5044335;28;20177;-80
2021/08/15 06:17:32;;;;;;;8.10;7.30;;;21.60;68.30;;;;;;5062109;28;20211;-80
2021/08/15 06:19:58;;;;;;;8.27;7.40;;;21.60;68.30;;;;;;5060494;28;20174;-80
2021/08/15 06:22:25;;;;;;;8.20;7.40;;;21.60;68.30;;;;;;5062516;28;20158;-80
2021/08/15 06:24:51;;;;;;;8.48;7.28;;;21.50;68.30;;;;;;5044378;28;20157;-80
2021/08/15 06:27:17;;;;;;;8.00;7.20;;;21.60;68.30;;;;;;5062286;28;20189;-80
2021/08/15 06:29:43;;;;;;;7.93;7.13;;;21.60;68.40;;;;;;5028283;28;20193;-79
2021/08/15 06:32:14;;;;;;;8.00;7.20;;;21.60;68.30;;;;;;5028175;28;20169;-80
2021/08/15 06:34:43;;;;;;;8.15;7.30;;;21.60;68.20;;;;;;5096352;28;20649;-80
2021/08/15 06:37:12;;;;;;;7.78;6.75;;;21.60;68.10;;;;;;5078986;28;20208;-82
2021/08/15 06:39:40;;;;;;;7.47;6.65;;;21.60;68.20;;;;;;5009959;28;20185;-80
2021/08/15 06:42:08;;;;;;;8.73;7.38;;;21.60;68.20;;;;;;5025630;28;20241;-80
2021/08/15 06:44:37;;;;;;;7.60;6.70;;;21.60;68.10;;;;;;5111199;28;20230;-81
2021/08/15 06:47:07;;;;;;;7.65;6.80;;;21.60;68.00;;;;;;5110508;28;20205;-80
2021/08/15 06:49:35;;;;;;;8.13;7.03;;;21.60;67.90;;;;;;5111844;28;20193;-81
2021/08/15 06:52:02;;;;;;;9.18;7.38;;;21.60;68.00;;;;;;5094140;28;20185;-82
2021/08/15 06:54:30;;;;;;;7.70;6.90;;;21.60;67.80;;;;;;5094286;28;20186;-80
2021/08/15 06:56:57;;;;;;;7.97;7.13;;;21.60;67.80;;;;;;5026801;28;20616;-81
2021/08/15 06:59:23;;;;;;;7.50;6.70;;;21.60;67.90;;;;;;5060556;28;20178;-80
2021/08/15 07:01:49;;;;;;;7.93;7.05;;;21.60;67.60;;;;;;5041309;28;20165;-80
2021/08/15 07:04:15;;;;;;;7.97;7.18;;;21.60;67.70;;;;;;5058597;28;20150;-80
2021/08/15 07:06:43;;;;;;;8.90;7.18;;;21.60;67.70;;;;;;5057752;28;20154;-80
2021/08/15 07:09:13;;;;;;;7.55;6.80;;;21.70;67.70;;;;;;5108535;28;20203;-81
2021/08/15 07:11:38;;;;;;;7.75;6.80;;;21.70;67.50;;;;;;5108321;28;20213;-81
2021/08/15 07:14:07;;;;;;;7.90;6.80;;;21.70;67.40;;;;;;5057569;28;20223;-80
2021/08/15 07:16:36;;;;;;;7.80;6.90;;;21.80;67.30;;;;;;5107998;28;20720;-81
2021/08/15 07:19:01;;;;;;;7.90;7.05;;;21.80;67.20;;;;;;5090736;28;20196;-81
2021/08/15 07:21:28;;;;;;;7.65;6.85;;;21.80;67.00;;;;;;5057525;28;20166;-80
2021/08/15 07:23:53;;;;;;;7.93;6.53;;;21.80;66.90;;;;;;5039354;28;20162;-82
2021/08/15 07:26:21;;;;;;;7.68;6.85;;;21.80;66.90;;;;;;5056644;28;20158;-81
2021/08/15 07:28:49;;;;;;;7.20;6.50;;;21.80;67.00;;;;;;5091969;28;20689;-81
2021/08/15 07:31:17;;;;;;;7.47;6.70;;;21.80;66.80;;;;;;5092567;28;20229;-80
2021/08/15 07:33:49;;;;;;;7.53;6.70;;;21.80;66.70;;;;;;5113360;28;20269;-80
2021/08/15 07:36:17;;;;;;;7.43;6.65;;;21.80;66.80;;;;;;5113082;28;20269;-81
2021/08/15 07:38:42;;;;;;;7.30;6.60;;;21.90;66.50;;;;;;5044845;28;20178;-81
2021/08/15 07:41:10;;;;;;;7.40;6.60;;;21.90;66.60;;;;;;5044793;28;20170;-80
2021/08/15 07:43:38;;;;;;;7.38;6.68;;;21.90;66.70;;;;;;5045692;28;20624;-80
2021/08/15 07:46:05;;;;;;;7.40;6.55;;;21.90;66.50;;;;;;5063668;27;20154;-80
2021/08/15 07:48:31;;;;;;;7.43;6.63;;;21.90;66.70;;;;;;5046016;28;20183;-80
2021/08/15 07:50:57;;;;;;;7.53;6.72;;;21.90;66.60;;;;;;5045362;28;20185;-80
2021/08/15 07:53:25;;;;;;;7.68;6.85;;;21.90;66.70;;;;;;5063125;28;20197;-80
2021/08/15 07:55:53;;;;;;;7.40;6.68;;;21.90;66.70;;;;;;5045262;28;20154;-80
2021/08/15 07:58:20;;;;;;;7.40;6.47;;;21.90;66.80;;;;;;5045385;28;20222;-80
2021/08/15 08:00:45;;;;;;;7.95;6.75;;;21.90;66.70;;;;;;5045082;28;20168;-80
2021/08/15 08:03:12;;;;;;;8.57;7.38;;;21.90;66.80;;;;;;5045934;28;20182;-80
2021/08/15 08:05:41;;;;;;;7.47;6.70;;;21.90;66.60;;;;;;5064315;28;20518;-81
2021/08/15 08:08:13;;;;;;;7.40;6.60;;;21.80;66.80;;;;;;5113946;28;20182;-80
2021/08/15 08:10:44;;;;;;;7.15;6.45;;;21.90;66.70;;;;;;5027987;28;20209;-80
2021/08/15 08:13:14;;;;;;;7.32;6.63;;;21.80;66.60;;;;;;5111163;28;20230;-80
2021/08/15 08:15:39;;;;;;;8.27;6.80;;;21.80;67.40;;;;;;5095017;28;20232;-80
2021/08/15 08:18:05;;;;;;;7.95;6.93;;;21.80;66.60;;;;;;5026211;28;20159;-80
2021/08/15 08:20:35;;;;;;;7.47;6.47;;;21.80;66.70;;;;;;5043846;28;20569;-80
2021/08/15 08:23:04;;;;;;;6.82;6.13;;;21.80;66.70;;;;;;5043904;28;20250;-83
2021/08/15 08:25:32;;;;;;;8.45;7.05;;;21.80;66.70;;;;;;5044325;28;20144;-80
2021/08/15 08:28:01;;;;;;;7.68;6.70;;;21.80;66.70;;;;;;5041941;28;20167;-80
2021/08/15 08:30:26;;;;;;;6.93;6.22;;;21.80;66.50;;;;;;5009355;28;20210;-80
2021/08/15 08:32:53;;;;;;;7.72;6.93;;;21.90;66.70;;;;;;5042501;28;20207;-81
2021/08/15 08:35:21;;;;;;;8.48;7.05;;;21.90;66.60;;;;;;5025366;28;20193;-81
2021/08/15 08:37:47;;;;;;;7.50;6.70;;;21.90;66.50;;;;;;5025754;28;20215;-80
2021/08/15 08:40:15;;;;;;;7.50;6.50;;;21.80;66.50;;;;;;5042884;28;20155;-80
2021/08/15 08:42:42;;;;;;;7.10;6.40;;;21.90;66.50;;;;;;5043315;28;20160;-80
2021/08/15 08:45:10;;;;;;;7.70;6.40;;;21.90;66.50;;;;;;5042990;28;20166;-81
2021/08/15 08:47:38;;;;;;;7.72;6.78;;;21.90;66.70;;;;;;5093656;28;20182;-80
2021/08/15 08:50:08;;;;;;;7.35;6.60;;;21.80;66.70;;;;;;5094069;28;20222;-82
2021/08/15 08:52:40;;;;;;;7.40;6.57;;;21.80;66.70;;;;;;5008533;28;20183;-80
2021/08/15 08:55:05;;;;;;;7.22;6.53;;;21.80;66.70;;;;;;5110593;28;20217;-81
2021/08/15 08:57:32;;;;;;;7.03;6.32;;;21.90;66.70;;;;;;5043138;28;20155;-81
2021/08/15 09:00:05;;;;;;;7.93;6.70;;;21.80;66.70;;;;;;5041864;28;20171;-80
2021/08/15 09:02:36;;;;;;;7.20;6.50;;;21.80;66.70;;;;;;5076159;28;20308;-80
2021/08/15 09:05:01;;;;;;;7.60;6.80;;;21.80;66.50;;;;;;5024751;28;20180;-80
2021/08/15 09:07:27;;;;;;;7.40;6.47;;;21.80;66.50;;;;;;5040214;28;20166;-80
2021/08/15 09:09:56;;;;;;;7.10;6.40;;;21.70;66.40;;;;;;5023382;28;20281;-80
2021/08/15 09:12:22;;;;;;;7.82;6.68;;;21.80;66.50;;;;;;5028758;28;20215;-80
2021/08/15 09:15:04;;;;;;;8.20;6.72;;;21.90;66.30;;;;;;5041877;28;20179;-82
2021/08/15 09:17:36;;;;;;;7.43;6.32;;;21.80;66.30;;;;;;4995557;28;20190;-81
2021/08/15 09:20:03;;;;;;;8.15;6.53;;;21.80;66.50;;;;;;5110841;28;20572;-80
2021/08/15 09:22:35;;;;;;;7.60;6.78;;;21.90;66.60;;;;;;5042963;28;20159;-80
2021/08/15 09:25:10;;;;;;;6.97;6.28;;;21.90;66.50;;;;;;5110541;28;20209;-80
2021/08/15 09:27:50;;;;;;;6.93;6.22;;;21.80;66.40;;;;;;5075673;28;20186;-81
2021/08/15 09:30:36;;;;;;;7.50;6.65;;;21.90;66.40;;;;;;5092747;28;20210;-81
2021/08/15 09:33:08;;;;;;;7.45;6.75;;;21.80;66.50;;;;;;5076772;28;20204;-81
2021/08/15 09:35:39;;;;;;;7.82;6.85;;;21.80;66.60;;;;;;5092913;28;20182;-80
2021/08/15 09:38:09;;;;;;;7.85;6.60;;;21.80;66.60;;;;;;5042119;28;20167;-80
2021/08/15 09:40:38;;;;;;;7.20;6.50;;;21.80;66.70;;;;;;5040634;28;20590;-82
2021/08/15 09:43:07;;;;;;;7.93;6.68;;;21.80;66.50;;;;;;5023758;28;20569;-80
2021/08/15 09:45:36;;;;;;;8.00;6.65;;;21.80;66.50;;;;;;5039868;28;20159;-80
2021/08/15 09:48:33;;;;;;;7.25;6.55;;;21.90;66.70;;;;;;5039841;28;20158;-81
2021/08/15 09:51:13;;;;;;;7.28;6.57;;;21.80;66.60;;;;;;5040642;28;20199;-81
2021/08/15 09:54:01;;;;;;;6.95;6.22;;;21.80;66.50;;;;;;5058353;28;20178;-80
2021/08/15 09:56:38;;;;;;;7.22;6.30;;;21.80;66.50;;;;;;5023307;28;20178;-80
2021/08/15 09:59:19;;;;;;;7.82;6.70;;;21.80;66.40;;;;;;5040400;28;20260;-81
2021/08/15 10:01:51;;;;;;;7.35;6.47;;;21.80;66.40;;;;;;5023612;28;20589;-80
2021/08/15 10:04:20;;;;;;;8.10;6.63;;;21.80;66.30;;;;;;5108591;28;20193;-80
2021/08/15 10:06:52;;;;;;;7.28;6.30;;;21.80;66.40;;;;;;5108756;28;20187;-80
2021/08/15 10:09:23;;;;;;;7.05;6.10;;;21.70;66.30;;;;;;5090384;28;20179;-80
2021/08/15 10:11:49;;;;;;;7.38;6.35;;;21.90;66.30;;;;;;5093319;28;20246;-81
2021/08/15 10:14:19;;;;;;;7.20;6.13;;;21.80;66.30;;;;;;5043184;28;20620;-80
2021/08/15 10:16:59;;;;;;;8.07;6.40;;;21.80;67.30;;;;;;5112589;28;20217;-80
2021/08/15 10:19:57;;;;;;;7.78;6.55;;;21.80;66.40;;;;;;5043279;28;20166;-80
2021/08/15 10:22:29;;;;;;;10.02;6.30;;;21.80;66.40;;;;;;5068596;28;20184;-80
2021/08/15 10:24:56;;;;;;;29.33;8.18;;;21.90;66.30;;;;;;5093975;28;20249;-80
2021/08/15 10:27:42;;;;;;;89.75;11.82;;;21.90;66.30;;;;;;5061073;28;20170;-80
2021/08/15 10:30:40;;;;;;;62.00;10.77;;;21.80;66.20;;;;;;5042062;28;20185;-80
2021/08/15 10:33:18;;;;;;;57.90;10.90;;;21.90;66.40;;;;;;5047766;28;20170;-80
2021/08/15 10:35:59;;;;;;;36.28;8.65;;;21.80;66.30;;;;;;5113643;28;20199;-80
2021/08/15 10:38:32;;;;;;;40.42;8.65;;;21.90;66.30;;;;;;5088940;28;20193;-81
2021/08/15 10:41:00;;;;;;;41.75;9.52;;;21.90;66.00;;;;;;5094791;28;20217;-80
2021/08/15 10:43:57;;;;;;;39.53;8.73;;;21.90;66.20;;;;;;5078660;28;20185;-80
2021/08/15 10:46:24;;;;;;;21.77;7.88;;;21.90;65.90;;;;;;5030956;28;20237;-81
2021/08/15 10:48:55;;;;;;;26.50;6.95;;;21.90;66.10;;;;;;5112645;28;20189;-81
2021/08/15 10:51:39;;;;;;;10.98;6.80;;;21.90;65.80;;;;;;5111314;28;20218;-81
2021/08/15 10:54:20;;;;;;;11.82;7.03;;;21.90;65.80;;;;;;5061651;28;20166;-81
2021/08/15 10:56:58;;;;;;;14.43;6.82;;;21.90;65.80;;;;;;5090668;28;20182;-80
2021/08/15 10:59:38;;;;;;;18.25;7.10;;;21.90;65.50;;;;;;5027052;28;20182;-80
2021/08/15 11:02:18;;;;;;;13.77;6.55;;;22.00;65.70;;;;;;5077223;28;20559;-80
2021/08/15 11:05:01;;;;;;;11.93;6.63;;;22.00;65.60;;;;;;5113294;28;20170;-80
2021/08/15 11:07:34;;;;;;;12.57;6.57;;;22.00;65.60;;;;;;5098550;28;20181;-80
2021/08/15 11:10:00;;;;;;;12.23;7.00;;;22.00;65.40;;;;;;5116508;28;20209;-81
2021/08/15 11:12:25;;;;;;;12.25;6.50;;;22.00;65.30;;;;;;5042620;28;20244;-80
2021/08/15 11:14:55;;;;;;;17.10;7.13;;;22.00;65.30;;;;;;5042276;28;20170;-80
2021/08/15 11:17:22;;;;;;;13.80;6.93;;;22.00;65.30;;;;;;5041298;28;20151;-81
2021/08/15 11:19:47;;;;;;;15.23;6.70;;;22.00;65.30;;;;;;5043794;28;20159;-80
2021/08/15 11:22:25;;;;;;;17.10;6.65;;;21.90;65.30;;;;;;5042042;28;20176;-80
2021/08/15 11:24:59;;;;;;;14.05;6.72;;;22.00;65.30;;;;;;5042360;28;20178;-80
2021/08/15 11:27:34;;;;;;;12.52;6.80;;;22.00;65.30;;;;;;5041602;28;20174;-81
2021/08/15 11:30:08;;;;;;;9.98;6.28;;;22.00;65.20;;;;;;5075514;28;20572;-80
2021/08/15 11:32:41;;;;;;;13.50;7.00;;;22.00;65.20;;;;;;5093559;28;20216;-81
2021/08/15 11:35:12;;;;;;;13.10;6.50;;;22.00;65.30;;;;;;5024118;28;20193;-80
2021/08/15 11:37:47;;;;;;;16.23;6.88;;;22.00;65.20;;;;;;5077203;28;20189;-80
2021/08/15 11:40:21;;;;;;;14.38;7.03;;;22.00;65.30;;;;;;5091375;28;20212;-81
2021/08/15 11:43:05;;;;;;;14.48;6.72;;;22.00;65.10;;;;;;5093356;28;20190;-80
2021/08/15 11:45:37;;;;;;;13.80;6.88;;;22.00;65.10;;;;;;5025798;28;20533;-81
2021/08/15 11:48:14;;;;;;;10.32;6.72;;;22.10;65.00;;;;;;5110075;28;20190;-80
2021/08/15 11:50:44;;;;;;;9.18;6.43;;;22.00;64.90;;;;;;5092916;28;20318;-81
2021/08/15 11:53:23;;;;;;;8.98;6.55;;;22.10;64.90;;;;;;5092856;28;20186;-81
2021/08/15 11:55:50;;;;;;;12.93;6.18;;;22.10;65.00;;;;;;5092414;28;20209;-82
2021/08/15 11:58:18;;;;;;;10.65;6.32;;;22.00;65.00;;;;;;5041806;28;20640;-80
2021/08/15 12:00:49;;;;;;;13.75;6.40;;;22.00;64.90;;;;;;5092441;28;20194;-81
2021/08/15 12:03:19;;;;;;;11.63;6.70;;;22.10;64.70;;;;;;5093518;28;20512;-82
2021/08/15 12:05:50;;;;;;;11.20;6.10;;;22.00;64.70;;;;;;5075423;28;20254;-80
2021/08/15 12:08:20;;;;;;;9.52;6.93;;;22.00;64.90;;;;;;5076394;28;20174;-80
2021/08/15 12:10:53;;;;;;;11.30;6.20;;;22.00;64.70;;;;;;5076609;28;20210;-82
2021/08/15 12:13:22;;;;;;;10.70;6.00;;;22.00;64.80;;;;;;5092762;28;20275;-81
2021/08/15 12:16:06;;;;;;;10.70;6.32;;;22.00;64.70;;;;;;5042250;28;20171;-81
2021/08/15 12:18:52;;;;;;;13.18;6.72;;;22.00;64.80;;;;;;5069680;28;20187;-81
2021/08/15 12:21:23;;;;;;;10.75;6.38;;;22.10;64.90;;;;;;5089052;28;20182;-80
2021/08/15 12:24:11;;;;;;;10.60;6.43;;;22.10;64.70;;;;;;5041780;28;20606;-80
2021/08/15 12:27:05;;;;;;;10.10;6.03;;;22.10;64.90;;;;;;5022614;28;20197;-80
2021/08/15 12:29:38;;;;;;;11.02;6.63;;;22.10;65.00;;;;;;5083899;28;20179;-82
2021/08/15 12:32:15;;;;;;;11.80;6.15;;;22.10;65.00;;;;;;5041593;28;20645;-80
2021/08/15 12:34:44;;;;;;;9.65;6.22;;;22.10;65.10;;;;;;5039640;28;20186;-80
2021/08/15 12:37:19;;;;;;;13.32;6.57;;;22.00;65.20;;;;;;5040062;28;20150;-81
2021/08/15 12:39:47;;;;;;;9.93;6.32;;;22.00;65.10;;;;;;5023181;28;20155;-81
2021/08/15 12:42:17;;;;;;;6.63;5.75;;;22.10;65.10;;;;;;5039213;28;20158;-81
2021/08/15 12:44:49;;;;;;;11.48;6.45;;;22.00;65.10;;;;;;5039551;28;20242;-81
2021/08/15 12:47:27;;;;;;;8.48;6.40;;;22.00;65.10;;;;;;5041264;28;20152;-80
2021/08/15 12:50:16;;;;;;;12.90;6.60;;;22.10;65.10;;;;;;5040805;28;20198;-82
2021/08/15 12:52:52;;;;;;;13.32;6.43;;;22.00;65.10;;;;;;5041645;28;20198;-81
2021/08/15 12:55:36;;;;;;;13.02;6.68;;;22.00;65.30;;;;;;5040755;28;20554;-81
2021/08/15 12:58:10;;;;;;;11.30;6.85;;;22.00;65.10;;;;;;5040720;28;20202;-80
2021/08/15 13:00:39;;;;;;;9.48;6.30;;;22.00;65.30;;;;;;5091608;28;20218;-80